sensor_id;sensor_type;location;lat;lon;timestamp;P1;durP1;ratioP1;P2;durP2;ratioP2
66478;SDS011;53294;47.912;13.526;2022-08-23T00:02:24;6.07;;;3.22;;
66478;SDS011;53294;47.912;13.526;2022-08-23T00:04:52;5.03;;;3.20;;
66478;SDS011;53294;47.912;13.526;2022-08-23T00:07:39;4.65;;;3.22;;
66478;SDS011;53294;47.912;13.526;2022-08-23T00:10:08;6.68;;;4.05;;
66478;SDS011;53294;47.912;13.526;2022-08-23T00:12:37;6.45;;;3.97;;
66478;SDS011;53294;47.912;13.526;2022-08-23T00:15:05;6.40;;;3.90;;
66478;SDS011;53294;47.912;13.526;2022-08-23T00:17:34;7.15;;;4.30;;
66478;SDS011;53294;47.912;13.526;2022-08-23T00:20:06;5.20;;;3.90;;
66478;SDS011;53294;47.912;13.526;2022-08-23T00:22:35;5.38;;;4.03;;
66478;SDS011;53294;47.912;13.526;2022-08-23T00:25:04;5.72;;;3.97;;
66478;SDS011;53294;47.912;13.526;2022-08-23T00:27:32;5.50;;;4.40;;
66478;SDS011;53294;47.912;13.526;2022-08-23T00:29:59;7.18;;;4.18;;
66478;SDS011;53294;47.912;13.526;2022-08-23T00:32:28;5.57;;;4.25;;
66478;SDS011;53294;47.912;13.526;2022-08-23T00:34:57;5.40;;;4.10;;
66478;SDS011;53294;47.912;13.526;2022-08-23T00:37:25;6.32;;;4.30;;
66478;SDS011;53294;47.912;13.526;2022-08-23T00:39:52;6.60;;;4.53;;
66478;SDS011;53294;47.912;13.526;2022-08-23T00:42:33;5.72;;;4.50;;
66478;SDS011;53294;47.912;13.526;2022-08-23T00:45:29;6.18;;;4.15;;
66478;SDS011;53294;47.912;13.526;2022-08-23T00:48:55;5.57;;;3.90;;
66478;SDS011;53294;47.912;13.526;2022-08-23T00:51:27;6.32;;;3.95;;
66478;SDS011;53294;47.912;13.526;2022-08-23T00:54:18;6.30;;;4.10;;
66478;SDS011;53294;47.912;13.526;2022-08-23T00:56:46;5.68;;;3.97;;
66478;SDS011;53294;47.912;13.526;2022-08-23T00:59:15;5.45;;;4.18;;
66478;SDS011;53294;47.912;13.526;2022-08-23T01:01:42;5.47;;;4.22;;
66478;SDS011;53294;47.912;13.526;2022-08-23T01:04:09;5.97;;;4.13;;
66478;SDS011;53294;47.912;13.526;2022-08-23T01:06:49;5.78;;;3.80;;
66478;SDS011;53294;47.912;13.526;2022-08-23T01:09:23;5.15;;;4.13;;
66478;SDS011;53294;47.912;13.526;2022-08-23T01:14:28;4.60;;;4.00;;
66478;SDS011;53294;47.912;13.526;2022-08-23T01:17:02;5.18;;;3.50;;
66478;SDS011;53294;47.912;13.526;2022-08-23T01:22:07;5.70;;;4.20;;
66478;SDS011;53294;47.912;13.526;2022-08-23T01:24:39;5.20;;;4.28;;
66478;SDS011;53294;47.912;13.526;2022-08-23T01:27:27;6.30;;;4.80;;
66478;SDS011;53294;47.912;13.526;2022-08-23T01:29:57;6.50;;;4.28;;
66478;SDS011;53294;47.912;13.526;2022-08-23T01:32:24;6.97;;;4.60;;
66478;SDS011;53294;47.912;13.526;2022-08-23T01:34:51;6.30;;;4.45;;
66478;SDS011;53294;47.912;13.526;2022-08-23T01:37:17;6.38;;;4.28;;
66478;SDS011;53294;47.912;13.526;2022-08-23T01:39:45;4.32;;;3.30;;
66478;SDS011;53294;47.912;13.526;2022-08-23T01:42:12;5.45;;;3.70;;
66478;SDS011;53294;47.912;13.526;2022-08-23T01:44:38;6.32;;;3.63;;
66478;SDS011;53294;47.912;13.526;2022-08-23T01:47:05;6.57;;;3.90;;
66478;SDS011;53294;47.912;13.526;2022-08-23T01:49:33;5.55;;;3.95;;
66478;SDS011;53294;47.912;13.526;2022-08-23T01:52:00;5.25;;;3.30;;
66478;SDS011;53294;47.912;13.526;2022-08-23T01:54:27;5.30;;;3.58;;
66478;SDS011;53294;47.912;13.526;2022-08-23T01:56:54;5.05;;;3.83;;
66478;SDS011;53294;47.912;13.526;2022-08-23T01:59:21;6.43;;;4.22;;
66478;SDS011;53294;47.912;13.526;2022-08-23T02:01:49;6.15;;;4.00;;
66478;SDS011;53294;47.912;13.526;2022-08-23T02:04:16;5.55;;;3.60;;
66478;SDS011;53294;47.912;13.526;2022-08-23T02:06:43;5.88;;;4.13;;
66478;SDS011;53294;47.912;13.526;2022-08-23T02:09:10;5.93;;;4.38;;
66478;SDS011;53294;47.912;13.526;2022-08-23T02:11:43;5.22;;;3.95;;
66478;SDS011;53294;47.912;13.526;2022-08-23T02:14:11;7.20;;;4.40;;
66478;SDS011;53294;47.912;13.526;2022-08-23T02:16:43;6.25;;;4.03;;
66478;SDS011;53294;47.912;13.526;2022-08-23T02:19:30;6.50;;;3.63;;
66478;SDS011;53294;47.912;13.526;2022-08-23T02:22:01;5.13;;;3.42;;
66478;SDS011;53294;47.912;13.526;2022-08-23T02:24:29;6.07;;;3.55;;
66478;SDS011;53294;47.912;13.526;2022-08-23T02:26:59;6.50;;;3.92;;
66478;SDS011;53294;47.912;13.526;2022-08-23T02:29:28;5.25;;;3.75;;
66478;SDS011;53294;47.912;13.526;2022-08-23T02:31:58;5.95;;;3.50;;
66478;SDS011;53294;47.912;13.526;2022-08-23T02:34:27;4.70;;;3.53;;
66478;SDS011;53294;47.912;13.526;2022-08-23T02:37:07;5.70;;;3.28;;
66478;SDS011;53294;47.912;13.526;2022-08-23T02:39:35;6.35;;;3.70;;
66478;SDS011;53294;47.912;13.526;2022-08-23T02:42:04;4.28;;;3.10;;
66478;SDS011;53294;47.912;13.526;2022-08-23T02:44:32;4.53;;;3.40;;
66478;SDS011;53294;47.912;13.526;2022-08-23T02:47:00;3.83;;;3.10;;
66478;SDS011;53294;47.912;13.526;2022-08-23T02:49:27;5.57;;;3.30;;
66478;SDS011;53294;47.912;13.526;2022-08-23T02:51:54;6.07;;;3.28;;
66478;SDS011;53294;47.912;13.526;2022-08-23T02:54:22;4.43;;;3.40;;
66478;SDS011;53294;47.912;13.526;2022-08-23T02:56:49;4.07;;;2.75;;
66478;SDS011;53294;47.912;13.526;2022-08-23T02:59:17;4.85;;;3.28;;
66478;SDS011;53294;47.912;13.526;2022-08-23T03:01:44;5.90;;;3.60;;
66478;SDS011;53294;47.912;13.526;2022-08-23T03:04:11;4.90;;;3.28;;
66478;SDS011;53294;47.912;13.526;2022-08-23T03:06:38;4.78;;;3.30;;
66478;SDS011;53294;47.912;13.526;2022-08-23T03:09:05;4.18;;;3.15;;
66478;SDS011;53294;47.912;13.526;2022-08-23T03:11:32;5.78;;;3.28;;
66478;SDS011;53294;47.912;13.526;2022-08-23T03:14:00;4.63;;;3.10;;
66478;SDS011;53294;47.912;13.526;2022-08-23T03:16:27;6.97;;;3.47;;
66478;SDS011;53294;47.912;13.526;2022-08-23T03:18:54;5.22;;;3.38;;
66478;SDS011;53294;47.912;13.526;2022-08-23T03:21:21;6.43;;;3.85;;
66478;SDS011;53294;47.912;13.526;2022-08-23T03:23:47;4.68;;;2.90;;
66478;SDS011;53294;47.912;13.526;2022-08-23T03:26:15;5.82;;;3.17;;
66478;SDS011;53294;47.912;13.526;2022-08-23T03:28:42;4.45;;;2.50;;
66478;SDS011;53294;47.912;13.526;2022-08-23T03:31:11;4.38;;;3.10;;
66478;SDS011;53294;47.912;13.526;2022-08-23T03:33:38;6.22;;;3.30;;
66478;SDS011;53294;47.912;13.526;2022-08-23T03:36:06;5.47;;;3.00;;
66478;SDS011;53294;47.912;13.526;2022-08-23T03:38:35;3.92;;;2.83;;
66478;SDS011;53294;47.912;13.526;2022-08-23T03:41:03;3.35;;;2.67;;
66478;SDS011;53294;47.912;13.526;2022-08-23T03:43:32;6.28;;;3.08;;
66478;SDS011;53294;47.912;13.526;2022-08-23T03:45:59;4.75;;;3.10;;
66478;SDS011;53294;47.912;13.526;2022-08-23T03:48:25;5.38;;;3.25;;
66478;SDS011;53294;47.912;13.526;2022-08-23T03:50:52;4.57;;;3.25;;
66478;SDS011;53294;47.912;13.526;2022-08-23T03:53:20;4.00;;;3.13;;
66478;SDS011;53294;47.912;13.526;2022-08-23T03:55:49;4.85;;;3.33;;
66478;SDS011;53294;47.912;13.526;2022-08-23T03:58:18;4.40;;;3.33;;
66478;SDS011;53294;47.912;13.526;2022-08-23T04:00:46;4.55;;;3.10;;
66478;SDS011;53294;47.912;13.526;2022-08-23T04:03:14;4.95;;;3.33;;
66478;SDS011;53294;47.912;13.526;2022-08-23T04:05:40;5.25;;;3.13;;
66478;SDS011;53294;47.912;13.526;2022-08-23T04:08:08;4.82;;;2.90;;
66478;SDS011;53294;47.912;13.526;2022-08-23T04:10:35;5.50;;;3.03;;
66478;SDS011;53294;47.912;13.526;2022-08-23T04:13:05;4.13;;;3.20;;
66478;SDS011;53294;47.912;13.526;2022-08-23T04:15:34;4.75;;;3.10;;
66478;SDS011;53294;47.912;13.526;2022-08-23T04:18:00;4.50;;;3.17;;
66478;SDS011;53294;47.912;13.526;2022-08-23T04:20:27;5.30;;;3.15;;
66478;SDS011;53294;47.912;13.526;2022-08-23T04:22:55;4.82;;;3.22;;
66478;SDS011;53294;47.912;13.526;2022-08-23T04:25:22;5.85;;;3.15;;
66478;SDS011;53294;47.912;13.526;2022-08-23T04:28:00;4.70;;;3.10;;
66478;SDS011;53294;47.912;13.526;2022-08-23T04:30:27;4.85;;;3.33;;
66478;SDS011;53294;47.912;13.526;2022-08-23T04:32:55;4.63;;;3.13;;
66478;SDS011;53294;47.912;13.526;2022-08-23T04:35:23;5.40;;;3.40;;
66478;SDS011;53294;47.912;13.526;2022-08-23T04:37:51;4.82;;;3.50;;
66478;SDS011;53294;47.912;13.526;2022-08-23T04:40:18;5.07;;;3.13;;
66478;SDS011;53294;47.912;13.526;2022-08-23T04:43:05;6.13;;;3.20;;
66478;SDS011;53294;47.912;13.526;2022-08-23T04:45:36;5.05;;;2.90;;
66478;SDS011;53294;47.912;13.526;2022-08-23T04:48:04;7.07;;;3.50;;
66478;SDS011;53294;47.912;13.526;2022-08-23T04:50:36;4.85;;;3.35;;
66478;SDS011;53294;47.912;13.526;2022-08-23T04:53:03;7.35;;;3.58;;
66478;SDS011;53294;47.912;13.526;2022-08-23T04:55:30;4.30;;;3.15;;
66478;SDS011;53294;47.912;13.526;2022-08-23T04:58:01;5.45;;;3.08;;
66478;SDS011;53294;47.912;13.526;2022-08-23T05:00:28;4.88;;;3.00;;
66478;SDS011;53294;47.912;13.526;2022-08-23T05:02:55;5.05;;;3.10;;
66478;SDS011;53294;47.912;13.526;2022-08-23T05:05:22;5.97;;;3.22;;
66478;SDS011;53294;47.912;13.526;2022-08-23T05:07:48;5.45;;;3.45;;
66478;SDS011;53294;47.912;13.526;2022-08-23T05:10:15;4.95;;;3.20;;
66478;SDS011;53294;47.912;13.526;2022-08-23T05:12:42;4.10;;;3.15;;
66478;SDS011;53294;47.912;13.526;2022-08-23T05:15:10;4.82;;;3.50;;
66478;SDS011;53294;47.912;13.526;2022-08-23T05:17:37;4.43;;;3.10;;
66478;SDS011;53294;47.912;13.526;2022-08-23T05:20:05;5.88;;;3.50;;
66478;SDS011;53294;47.912;13.526;2022-08-23T05:22:34;4.53;;;3.20;;
66478;SDS011;53294;47.912;13.526;2022-08-23T05:25:02;5.70;;;3.50;;
66478;SDS011;53294;47.912;13.526;2022-08-23T05:27:29;4.43;;;3.38;;
66478;SDS011;53294;47.912;13.526;2022-08-23T05:29:56;5.05;;;3.33;;
66478;SDS011;53294;47.912;13.526;2022-08-23T05:32:23;5.28;;;3.60;;
66478;SDS011;53294;47.912;13.526;2022-08-23T05:34:50;4.93;;;3.22;;
66478;SDS011;53294;47.912;13.526;2022-08-23T05:37:16;5.65;;;3.45;;
66478;SDS011;53294;47.912;13.526;2022-08-23T05:39:43;4.78;;;3.55;;
66478;SDS011;53294;47.912;13.526;2022-08-23T05:42:11;4.65;;;3.10;;
66478;SDS011;53294;47.912;13.526;2022-08-23T05:44:41;4.72;;;3.20;;
66478;SDS011;53294;47.912;13.526;2022-08-23T05:47:09;5.28;;;3.75;;
66478;SDS011;53294;47.912;13.526;2022-08-23T05:49:40;6.72;;;3.97;;
66478;SDS011;53294;47.912;13.526;2022-08-23T05:52:08;7.55;;;4.20;;
66478;SDS011;53294;47.912;13.526;2022-08-23T05:54:37;7.03;;;4.55;;
66478;SDS011;53294;47.912;13.526;2022-08-23T05:57:04;5.60;;;3.40;;
66478;SDS011;53294;47.912;13.526;2022-08-23T05:59:31;5.47;;;3.20;;
66478;SDS011;53294;47.912;13.526;2022-08-23T06:01:58;4.57;;;3.13;;
66478;SDS011;53294;47.912;13.526;2022-08-23T06:04:25;5.35;;;3.17;;
66478;SDS011;53294;47.912;13.526;2022-08-23T06:06:51;5.15;;;3.38;;
66478;SDS011;53294;47.912;13.526;2022-08-23T06:09:21;5.65;;;3.70;;
66478;SDS011;53294;47.912;13.526;2022-08-23T06:11:48;5.32;;;3.40;;
66478;SDS011;53294;47.912;13.526;2022-08-23T06:14:15;7.10;;;2.90;;
66478;SDS011;53294;47.912;13.526;2022-08-23T06:16:43;4.35;;;2.97;;
66478;SDS011;53294;47.912;13.526;2022-08-23T06:19:12;5.20;;;3.30;;
66478;SDS011;53294;47.912;13.526;2022-08-23T06:21:39;4.88;;;3.17;;
66478;SDS011;53294;47.912;13.526;2022-08-23T06:24:07;3.90;;;2.60;;
66478;SDS011;53294;47.912;13.526;2022-08-23T06:26:36;5.13;;;2.85;;
66478;SDS011;53294;47.912;13.526;2022-08-23T06:29:10;3.65;;;2.70;;
66478;SDS011;53294;47.912;13.526;2022-08-23T06:34:12;4.30;;;2.90;;
66478;SDS011;53294;47.912;13.526;2022-08-23T06:36:41;4.47;;;3.10;;
66478;SDS011;53294;47.912;13.526;2022-08-23T06:39:09;3.85;;;2.67;;
66478;SDS011;53294;47.912;13.526;2022-08-23T06:41:36;3.80;;;2.50;;
66478;SDS011;53294;47.912;13.526;2022-08-23T06:44:04;3.17;;;2.50;;
66478;SDS011;53294;47.912;13.526;2022-08-23T06:46:32;4.07;;;2.20;;
66478;SDS011;53294;47.912;13.526;2022-08-23T06:48:59;4.30;;;2.80;;
66478;SDS011;53294;47.912;13.526;2022-08-23T06:53:58;3.22;;;2.00;;
66478;SDS011;53294;47.912;13.526;2022-08-23T06:56:29;4.00;;;2.30;;
66478;SDS011;53294;47.912;13.526;2022-08-23T06:58:58;3.78;;;2.22;;
66478;SDS011;53294;47.912;13.526;2022-08-23T07:01:46;3.47;;;2.30;;
66478;SDS011;53294;47.912;13.526;2022-08-23T07:04:18;4.30;;;2.67;;
66478;SDS011;53294;47.912;13.526;2022-08-23T07:06:51;4.72;;;2.40;;
66478;SDS011;53294;47.912;13.526;2022-08-23T07:09:20;3.53;;;2.30;;
66478;SDS011;53294;47.912;13.526;2022-08-23T07:11:50;4.07;;;2.78;;
66478;SDS011;53294;47.912;13.526;2022-08-23T07:14:20;3.65;;;2.65;;
66478;SDS011;53294;47.912;13.526;2022-08-23T07:16:54;4.60;;;2.78;;
66478;SDS011;53294;47.912;13.526;2022-08-23T07:21:54;3.05;;;2.30;;
66478;SDS011;53294;47.912;13.526;2022-08-23T07:24:22;5.28;;;2.50;;
66478;SDS011;53294;47.912;13.526;2022-08-23T07:26:50;5.15;;;2.42;;
66478;SDS011;53294;47.912;13.526;2022-08-23T07:29:20;3.90;;;2.22;;
66478;SDS011;53294;47.912;13.526;2022-08-23T07:31:50;4.05;;;2.15;;
66478;SDS011;53294;47.912;13.526;2022-08-23T07:34:22;3.63;;;2.40;;
66478;SDS011;53294;47.912;13.526;2022-08-23T07:36:52;5.38;;;2.30;;
66478;SDS011;53294;47.912;13.526;2022-08-23T07:39:22;4.13;;;2.42;;
66478;SDS011;53294;47.912;13.526;2022-08-23T07:41:51;2.55;;;1.85;;
66478;SDS011;53294;47.912;13.526;2022-08-23T07:44:20;4.47;;;2.35;;
66478;SDS011;53294;47.912;13.526;2022-08-23T07:46:53;4.57;;;2.35;;
66478;SDS011;53294;47.912;13.526;2022-08-23T07:49:22;3.88;;;2.30;;
66478;SDS011;53294;47.912;13.526;2022-08-23T07:51:54;4.60;;;2.90;;
66478;SDS011;53294;47.912;13.526;2022-08-23T07:54:24;3.92;;;2.50;;
66478;SDS011;53294;47.912;13.526;2022-08-23T07:56:50;5.43;;;2.65;;
66478;SDS011;53294;47.912;13.526;2022-08-23T07:59:17;3.80;;;2.53;;
66478;SDS011;53294;47.912;13.526;2022-08-23T08:01:44;4.85;;;2.30;;
66478;SDS011;53294;47.912;13.526;2022-08-23T08:04:11;4.22;;;2.40;;
66478;SDS011;53294;47.912;13.526;2022-08-23T08:06:40;3.53;;;2.40;;
66478;SDS011;53294;47.912;13.526;2022-08-23T08:09:09;4.35;;;2.40;;
66478;SDS011;53294;47.912;13.526;2022-08-23T08:11:39;3.53;;;2.30;;
66478;SDS011;53294;47.912;13.526;2022-08-23T08:14:08;4.00;;;2.53;;
66478;SDS011;53294;47.912;13.526;2022-08-23T08:16:40;4.85;;;2.55;;
66478;SDS011;53294;47.912;13.526;2022-08-23T08:19:10;5.80;;;2.40;;
66478;SDS011;53294;47.912;13.526;2022-08-23T08:21:38;7.07;;;2.80;;
66478;SDS011;53294;47.912;13.526;2022-08-23T08:24:08;4.30;;;2.38;;
66478;SDS011;53294;47.912;13.526;2022-08-23T08:26:38;6.13;;;3.00;;
66478;SDS011;53294;47.912;13.526;2022-08-23T08:29:07;4.95;;;2.70;;
66478;SDS011;53294;47.912;13.526;2022-08-23T08:31:38;6.10;;;2.95;;
66478;SDS011;53294;47.912;13.526;2022-08-23T08:34:06;5.93;;;2.78;;
66478;SDS011;53294;47.912;13.526;2022-08-23T08:36:35;5.65;;;2.60;;
66478;SDS011;53294;47.912;13.526;2022-08-23T08:39:06;6.78;;;2.83;;
66478;SDS011;53294;47.912;13.526;2022-08-23T08:44:32;6.38;;;3.05;;
66478;SDS011;53294;47.912;13.526;2022-08-23T08:47:16;5.35;;;3.13;;
66478;SDS011;53294;47.912;13.526;2022-08-23T08:49:48;4.60;;;2.70;;
66478;SDS011;53294;47.912;13.526;2022-08-23T08:52:24;4.53;;;3.10;;
66478;SDS011;53294;47.912;13.526;2022-08-23T08:57:31;4.65;;;2.95;;
66478;SDS011;53294;47.912;13.526;2022-08-23T09:00:06;6.32;;;3.33;;
66478;SDS011;53294;47.912;13.526;2022-08-23T09:02:38;5.63;;;2.78;;
66478;SDS011;53294;47.912;13.526;2022-08-23T09:05:11;4.90;;;2.40;;
66478;SDS011;53294;47.912;13.526;2022-08-23T09:10:26;5.85;;;2.80;;
66478;SDS011;53294;47.912;13.526;2022-08-23T09:18:42;2.80;;;1.90;;
66478;SDS011;53294;47.912;13.526;2022-08-23T09:21:09;3.67;;;2.25;;
66478;SDS011;53294;47.912;13.526;2022-08-23T09:23:40;3.97;;;2.22;;
66478;SDS011;53294;47.912;13.526;2022-08-23T09:26:22;3.40;;;1.92;;
66478;SDS011;53294;47.912;13.526;2022-08-23T09:28:54;3.60;;;1.90;;
66478;SDS011;53294;47.912;13.526;2022-08-23T09:39:37;4.80;;;2.00;;
66478;SDS011;53294;47.912;13.526;2022-08-23T09:42:24;3.50;;;2.03;;
66478;SDS011;53294;47.912;13.526;2022-08-23T09:45:51;3.88;;;1.98;;
66478;SDS011;53294;47.912;13.526;2022-08-23T09:48:00;3.92;;;2.10;;
66478;SDS011;53294;47.912;13.526;2022-08-23T09:53:11;4.00;;;1.90;;
66478;SDS011;53294;47.912;13.526;2022-08-23T09:55:41;3.22;;;1.90;;
66478;SDS011;53294;47.912;13.526;2022-08-23T10:03:44;4.05;;;2.50;;
66478;SDS011;53294;47.912;13.526;2022-08-23T10:06:12;3.65;;;2.20;;
66478;SDS011;53294;47.912;13.526;2022-08-23T10:08:56;3.63;;;2.20;;
66478;SDS011;53294;47.912;13.526;2022-08-23T10:11:31;4.18;;;2.28;;
66478;SDS011;53294;47.912;13.526;2022-08-23T10:14:17;4.93;;;3.03;;
66478;SDS011;53294;47.912;13.526;2022-08-23T10:17:04;4.38;;;2.10;;
66478;SDS011;53294;47.912;13.526;2022-08-23T10:20:13;4.05;;;2.60;;
66478;SDS011;53294;47.912;13.526;2022-08-23T10:22:54;4.10;;;2.40;;
66478;SDS011;53294;47.912;13.526;2022-08-23T10:26:04;5.88;;;2.40;;
66478;SDS011;53294;47.912;13.526;2022-08-23T10:28:27;7.43;;;3.55;;
66478;SDS011;53294;47.912;13.526;2022-08-23T10:31:29;7.93;;;3.50;;
66478;SDS011;53294;47.912;13.526;2022-08-23T10:40:06;4.13;;;2.42;;
66478;SDS011;53294;47.912;13.526;2022-08-23T10:45:51;4.78;;;2.30;;
66478;SDS011;53294;47.912;13.526;2022-08-23T10:48:29;4.05;;;2.28;;
66478;SDS011;53294;47.912;13.526;2022-08-23T10:56:38;5.80;;;2.78;;
66478;SDS011;53294;47.912;13.526;2022-08-23T10:59:23;3.83;;;2.25;;
66478;SDS011;53294;47.912;13.526;2022-08-23T11:02:07;5.47;;;3.00;;
66478;SDS011;53294;47.912;13.526;2022-08-23T11:07:55;3.67;;;2.28;;
66478;SDS011;53294;47.912;13.526;2022-08-23T11:13:23;3.53;;;2.28;;
66478;SDS011;53294;47.912;13.526;2022-08-23T11:18:56;8.10;;;4.65;;
66478;SDS011;53294;47.912;13.526;2022-08-23T11:23:51;5.22;;;2.33;;
66478;SDS011;53294;47.912;13.526;2022-08-23T11:31:43;2.67;;;1.70;;
66478;SDS011;53294;47.912;13.526;2022-08-23T11:34:30;3.67;;;2.03;;
66478;SDS011;53294;47.912;13.526;2022-08-23T11:42:42;5.72;;;2.72;;
66478;SDS011;53294;47.912;13.526;2022-08-23T11:48:05;2.85;;;1.83;;
66478;SDS011;53294;47.912;13.526;2022-08-23T11:53:08;2.63;;;1.70;;
66478;SDS011;53294;47.912;13.526;2022-08-23T12:01:29;3.35;;;1.92;;
66478;SDS011;53294;47.912;13.526;2022-08-23T12:04:00;3.53;;;2.03;;
66478;SDS011;53294;47.912;13.526;2022-08-23T12:06:39;3.05;;;1.90;;
66478;SDS011;53294;47.912;13.526;2022-08-23T12:17:04;6.18;;;1.70;;
66478;SDS011;53294;47.912;13.526;2022-08-23T12:22:54;3.95;;;1.77;;
66478;SDS011;53294;47.912;13.526;2022-08-23T12:25:25;4.53;;;1.80;;
66478;SDS011;53294;47.912;13.526;2022-08-23T12:27:56;4.03;;;1.90;;
66478;SDS011;53294;47.912;13.526;2022-08-23T12:30:55;3.35;;;1.60;;
66478;SDS011;53294;47.912;13.526;2022-08-23T12:44:46;3.22;;;1.95;;
66478;SDS011;53294;47.912;13.526;2022-08-23T12:47:28;3.80;;;1.80;;
66478;SDS011;53294;47.912;13.526;2022-08-23T12:49:59;3.40;;;1.80;;
66478;SDS011;53294;47.912;13.526;2022-08-23T12:52:35;3.55;;;1.90;;
66478;SDS011;53294;47.912;13.526;2022-08-23T12:55:13;3.00;;;1.70;;
66478;SDS011;53294;47.912;13.526;2022-08-23T12:57:43;2.53;;;1.60;;
66478;SDS011;53294;47.912;13.526;2022-08-23T13:00:21;3.40;;;1.73;;
66478;SDS011;53294;47.912;13.526;2022-08-23T13:02:56;3.25;;;1.75;;
66478;SDS011;53294;47.912;13.526;2022-08-23T13:05:38;2.95;;;1.50;;
66478;SDS011;53294;47.912;13.526;2022-08-23T13:08:10;3.85;;;1.88;;
66478;SDS011;53294;47.912;13.526;2022-08-23T13:11:00;4.60;;;1.90;;
66478;SDS011;53294;47.912;13.526;2022-08-23T13:13:33;2.53;;;1.60;;
66478;SDS011;53294;47.912;13.526;2022-08-23T13:16:21;4.45;;;2.05;;
66478;SDS011;53294;47.912;13.526;2022-08-23T13:18:52;3.85;;;1.95;;
66478;SDS011;53294;47.912;13.526;2022-08-23T13:23:58;3.75;;;1.85;;
66478;SDS011;53294;47.912;13.526;2022-08-23T13:26:50;4.63;;;1.70;;
66478;SDS011;53294;47.912;13.526;2022-08-23T13:29:23;4.05;;;1.92;;
66478;SDS011;53294;47.912;13.526;2022-08-23T13:34:32;4.05;;;1.90;;
66478;SDS011;53294;47.912;13.526;2022-08-23T13:37:18;3.10;;;1.90;;
66478;SDS011;53294;47.912;13.526;2022-08-23T13:39:50;4.35;;;1.90;;
66478;SDS011;53294;47.912;13.526;2022-08-23T13:45:36;3.28;;;1.65;;
66478;SDS011;53294;47.912;13.526;2022-08-23T13:48:11;4.25;;;1.65;;
66478;SDS011;53294;47.912;13.526;2022-08-23T13:50:41;3.55;;;1.98;;
66478;SDS011;53294;47.912;13.526;2022-08-23T13:53:08;4.50;;;1.60;;
66478;SDS011;53294;47.912;13.526;2022-08-23T13:55:50;3.35;;;1.80;;
66478;SDS011;53294;47.912;13.526;2022-08-23T13:58:37;3.22;;;1.70;;
66478;SDS011;53294;47.912;13.526;2022-08-23T14:01:04;3.67;;;1.90;;
66478;SDS011;53294;47.912;13.526;2022-08-23T14:03:43;2.08;;;1.35;;
66478;SDS011;53294;47.912;13.526;2022-08-23T14:06:10;4.30;;;1.83;;
66478;SDS011;53294;47.912;13.526;2022-08-23T14:08:36;4.22;;;1.95;;
66478;SDS011;53294;47.912;13.526;2022-08-23T14:11:03;4.85;;;1.83;;
66478;SDS011;53294;47.912;13.526;2022-08-23T14:13:30;2.92;;;1.60;;
66478;SDS011;53294;47.912;13.526;2022-08-23T14:16:00;3.60;;;1.77;;
66478;SDS011;53294;47.912;13.526;2022-08-23T14:18:50;2.78;;;1.70;;
66478;SDS011;53294;47.912;13.526;2022-08-23T14:21:37;2.53;;;1.42;;
66478;SDS011;53294;47.912;13.526;2022-08-23T14:24:04;2.00;;;1.42;;
66478;SDS011;53294;47.912;13.526;2022-08-23T14:26:31;3.75;;;1.30;;
66478;SDS011;53294;47.912;13.526;2022-08-23T14:28:57;4.38;;;1.50;;
66478;SDS011;53294;47.912;13.526;2022-08-23T14:31:24;3.20;;;1.30;;
66478;SDS011;53294;47.912;13.526;2022-08-23T14:33:51;2.65;;;1.40;;
66478;SDS011;53294;47.912;13.526;2022-08-23T14:36:18;3.65;;;1.67;;
66478;SDS011;53294;47.912;13.526;2022-08-23T14:38:50;2.03;;;1.37;;
66478;SDS011;53294;47.912;13.526;2022-08-23T14:41:17;2.45;;;1.58;;
66478;SDS011;53294;47.912;13.526;2022-08-23T14:43:48;2.60;;;1.52;;
66478;SDS011;53294;47.912;13.526;2022-08-23T14:46:15;2.90;;;1.67;;
66478;SDS011;53294;47.912;13.526;2022-08-23T14:48:42;2.88;;;1.50;;
66478;SDS011;53294;47.912;13.526;2022-08-23T14:53:53;3.80;;;1.70;;
66478;SDS011;53294;47.912;13.526;2022-08-23T14:56:20;3.25;;;1.70;;
66478;SDS011;53294;47.912;13.526;2022-08-23T14:58:47;5.15;;;1.80;;
66478;SDS011;53294;47.912;13.526;2022-08-23T15:01:16;3.00;;;1.75;;
66478;SDS011;53294;47.912;13.526;2022-08-23T15:03:44;2.78;;;1.60;;
66478;SDS011;53294;47.912;13.526;2022-08-23T15:06:12;2.35;;;1.52;;
66478;SDS011;53294;47.912;13.526;2022-08-23T15:08:41;2.25;;;1.58;;
66478;SDS011;53294;47.912;13.526;2022-08-23T15:11:08;3.30;;;1.67;;
66478;SDS011;53294;47.912;13.526;2022-08-23T15:13:56;2.05;;;1.50;;
66478;SDS011;53294;47.912;13.526;2022-08-23T15:16:25;2.55;;;1.50;;
66478;SDS011;53294;47.912;13.526;2022-08-23T15:18:53;3.53;;;1.20;;
66478;SDS011;53294;47.912;13.526;2022-08-23T15:21:20;3.20;;;1.50;;
66478;SDS011;53294;47.912;13.526;2022-08-23T15:23:47;3.00;;;1.60;;
66478;SDS011;53294;47.912;13.526;2022-08-23T15:26:18;3.40;;;2.38;;
66478;SDS011;53294;47.912;13.526;2022-08-23T15:28:48;5.20;;;2.92;;
66478;SDS011;53294;47.912;13.526;2022-08-23T15:31:15;6.63;;;2.83;;
66478;SDS011;53294;47.912;13.526;2022-08-23T15:33:43;4.57;;;3.10;;
66478;SDS011;53294;47.912;13.526;2022-08-23T15:36:10;7.45;;;3.20;;
66478;SDS011;53294;47.912;13.526;2022-08-23T15:38:41;5.85;;;3.33;;
66478;SDS011;53294;47.912;13.526;2022-08-23T15:41:09;6.20;;;3.63;;
66478;SDS011;53294;47.912;13.526;2022-08-23T15:43:36;6.00;;;3.40;;
66478;SDS011;53294;47.912;13.526;2022-08-23T15:46:05;7.15;;;3.28;;
66478;SDS011;53294;47.912;13.526;2022-08-23T15:48:41;7.38;;;3.72;;
66478;SDS011;53294;47.912;13.526;2022-08-23T15:51:09;5.50;;;3.65;;
66478;SDS011;53294;47.912;13.526;2022-08-23T15:53:37;7.13;;;3.92;;
66478;SDS011;53294;47.912;13.526;2022-08-23T15:56:09;5.97;;;3.80;;
66478;SDS011;53294;47.912;13.526;2022-08-23T15:58:39;5.80;;;4.60;;
66478;SDS011;53294;47.912;13.526;2022-08-23T16:01:07;5.78;;;3.70;;
66478;SDS011;53294;47.912;13.526;2022-08-23T16:03:35;5.60;;;3.08;;
66478;SDS011;53294;47.912;13.526;2022-08-23T16:06:03;5.13;;;3.00;;
66478;SDS011;53294;47.912;13.526;2022-08-23T16:08:31;5.28;;;2.90;;
66478;SDS011;53294;47.912;13.526;2022-08-23T16:11:01;5.38;;;3.05;;
66478;SDS011;53294;47.912;13.526;2022-08-23T16:13:30;5.18;;;3.20;;
66478;SDS011;53294;47.912;13.526;2022-08-23T16:15:56;4.43;;;2.78;;
66478;SDS011;53294;47.912;13.526;2022-08-23T16:18:23;4.13;;;2.90;;
66478;SDS011;53294;47.912;13.526;2022-08-23T16:20:50;4.05;;;2.95;;
66478;SDS011;53294;47.912;13.526;2022-08-23T16:23:19;4.38;;;2.60;;
66478;SDS011;53294;47.912;13.526;2022-08-23T16:25:46;3.55;;;2.50;;
66478;SDS011;53294;47.912;13.526;2022-08-23T16:28:12;3.50;;;2.47;;
66478;SDS011;53294;47.912;13.526;2022-08-23T16:30:39;5.00;;;2.60;;
66478;SDS011;53294;47.912;13.526;2022-08-23T16:33:06;4.15;;;2.58;;
66478;SDS011;53294;47.912;13.526;2022-08-23T16:35:33;3.28;;;2.00;;
66478;SDS011;53294;47.912;13.526;2022-08-23T16:37:59;4.43;;;2.63;;
66478;SDS011;53294;47.912;13.526;2022-08-23T16:40:26;3.42;;;2.22;;
66478;SDS011;53294;47.912;13.526;2022-08-23T16:42:53;4.47;;;2.42;;
66478;SDS011;53294;47.912;13.526;2022-08-23T16:45:21;3.75;;;2.53;;
66478;SDS011;53294;47.912;13.526;2022-08-23T16:47:51;2.67;;;1.92;;
66478;SDS011;53294;47.912;13.526;2022-08-23T16:50:18;2.92;;;2.20;;
66478;SDS011;53294;47.912;13.526;2022-08-23T16:52:45;4.28;;;2.20;;
66478;SDS011;53294;47.912;13.526;2022-08-23T16:55:12;3.80;;;2.10;;
66478;SDS011;53294;47.912;13.526;2022-08-23T16:57:39;3.55;;;2.00;;
66478;SDS011;53294;47.912;13.526;2022-08-23T17:00:06;3.20;;;2.00;;
66478;SDS011;53294;47.912;13.526;2022-08-23T17:02:37;3.50;;;2.10;;